createdAt,value
2023-05-19T00:00:25.602Z,1.93
2023-05-19T00:01:25.687Z,1.90
2023-05-19T00:02:25.848Z,1.89
2023-05-19T00:03:25.828Z,1.86
2023-05-19T00:04:25.808Z,1.79
2023-05-19T00:05:25.965Z,1.84
2023-05-19T00:06:25.934Z,1.85
2023-05-19T00:07:25.998Z,1.86
2023-05-19T00:08:26.042Z,1.83
2023-05-19T00:09:26.100Z,1.83
2023-05-19T00:10:26.137Z,1.80
2023-05-19T00:11:26.212Z,1.74
2023-05-19T00:12:26.262Z,1.76
2023-05-19T00:13:26.305Z,1.81
2023-05-19T00:14:26.400Z,1.78
2023-05-19T00:15:26.429Z,1.79
2023-05-19T00:16:26.498Z,1.79
2023-05-19T00:17:26.570Z,1.80
2023-05-19T00:18:26.624Z,1.80
2023-05-19T00:19:26.678Z,1.80
2023-05-19T00:20:26.664Z,1.82
2023-05-19T00:21:26.723Z,1.85
2023-05-19T00:22:26.786Z,1.84
2023-05-19T00:23:26.847Z,1.91
2023-05-19T00:24:26.920Z,1.90
2023-05-19T00:25:26.961Z,1.84
2023-05-19T00:26:27.087Z,1.86
2023-05-19T00:27:27.065Z,1.90
2023-05-19T00:28:27.155Z,1.87
2023-05-19T00:29:27.203Z,1.82
2023-05-19T00:30:27.222Z,1.85
2023-05-19T00:31:27.324Z,1.89
2023-05-19T00:32:27.342Z,1.87
2023-05-19T00:33:27.368Z,1.85
2023-05-19T00:34:27.419Z,1.88
2023-05-19T00:35:27.486Z,1.87
2023-05-19T00:36:27.546Z,1.87
2023-05-19T00:37:27.606Z,1.83
2023-05-19T00:38:27.669Z,1.86
2023-05-19T00:39:27.712Z,1.86
2023-05-19T00:40:27.815Z,1.90
2023-05-19T00:41:27.807Z,1.88
2023-05-19T00:42:27.830Z,1.95
2023-05-19T00:43:27.852Z,1.89
2023-05-19T00:44:27.911Z,1.92
2023-05-19T00:45:27.923Z,1.96
2023-05-19T00:46:28.050Z,1.98
2023-05-19T00:47:28.074Z,2.01
2023-05-19T00:48:28.128Z,1.98
2023-05-19T00:49:28.172Z,2.04
2023-05-19T00:50:28.212Z,2.00
2023-05-19T00:51:28.275Z,2.01
2023-05-19T00:52:28.284Z,1.96
2023-05-19T00:53:28.336Z,2.03
2023-05-19T00:54:28.379Z,2.11
2023-05-19T00:55:28.434Z,2.09
2023-05-19T00:56:28.503Z,2.08
2023-05-19T00:57:28.553Z,2.08
2023-05-19T00:58:28.563Z,2.03
2023-05-19T00:59:28.628Z,2.01
2023-05-19T01:00:28.708Z,2.03
2023-05-19T01:01:28.875Z,2.22
2023-05-19T01:02:28.952Z,2.14
2023-05-19T01:03:28.951Z,2.08
2023-05-19T01:04:28.946Z,2.15
2023-05-19T01:05:29.010Z,2.12
2023-05-19T01:06:29.049Z,2.16
2023-05-19T01:07:29.114Z,2.10
2023-05-19T01:08:29.176Z,2.15
2023-05-19T01:09:29.283Z,2.15
2023-05-19T01:10:29.331Z,2.16
2023-05-19T01:11:29.289Z,2.12
2023-05-19T01:12:29.352Z,2.14
2023-05-19T01:13:29.391Z,2.17
2023-05-19T01:14:29.472Z,2.17
2023-05-19T01:15:29.494Z,2.17
2023-05-19T01:16:29.575Z,2.16
2023-05-19T01:17:29.612Z,2.21
2023-05-19T01:18:29.611Z,2.15
2023-05-19T01:19:29.675Z,2.34
2023-05-19T01:20:29.853Z,2.31
2023-05-19T01:21:29.792Z,2.34
2023-05-19T01:22:29.849Z,2.35
2023-05-19T01:23:29.852Z,2.27
2023-05-19T01:24:29.890Z,2.27
2023-05-19T01:25:29.952Z,2.32
2023-05-19T01:26:29.985Z,2.37
2023-05-19T01:27:30.032Z,2.33
2023-05-19T01:28:30.087Z,2.37
2023-05-19T01:29:30.143Z,2.40
2023-05-19T01:30:30.422Z,2.40
2023-05-19T01:31:30.302Z,2.37
2023-05-19T01:32:30.381Z,2.44
2023-05-19T01:33:30.388Z,2.40
2023-05-19T01:34:30.452Z,2.40
2023-05-19T01:35:30.506Z,2.42
2023-05-19T01:36:30.553Z,2.38
2023-05-19T01:37:30.602Z,2.44
2023-05-19T01:38:30.673Z,2.41
2023-05-19T01:39:30.739Z,2.43
2023-05-19T01:40:30.998Z,2.48
2023-05-19T01:41:30.881Z,2.52
2023-05-19T01:42:30.930Z,2.55
2023-05-19T01:43:30.996Z,2.50
2023-05-19T01:44:31.040Z,2.58
2023-05-19T01:45:31.155Z,2.54
2023-05-19T01:46:31.209Z,2.54
2023-05-19T01:47:31.221Z,2.54
2023-05-19T01:48:31.200Z,2.60
2023-05-19T01:49:31.247Z,2.65
2023-05-19T01:50:31.511Z,2.63
2023-05-19T01:51:31.384Z,2.65
2023-05-19T01:52:31.434Z,2.64
2023-05-19T01:53:31.504Z,2.64
2023-05-19T01:54:31.542Z,2.72
2023-05-19T01:55:31.567Z,2.80
2023-05-19T01:56:31.631Z,2.75
2023-05-19T01:57:31.679Z,2.73
2023-05-19T01:58:31.758Z,2.70
2023-05-19T01:59:31.827Z,2.80
2023-05-19T02:00:32.198Z,2.75
2023-05-19T02:01:31.967Z,2.80
2023-05-19T02:02:32.009Z,2.81
2023-05-19T02:03:32.033Z,2.77
2023-05-19T02:04:32.168Z,2.69
2023-05-19T02:05:32.157Z,2.62
2023-05-19T02:06:32.263Z,2.66
2023-05-19T02:07:32.246Z,2.65
2023-05-19T02:08:32.310Z,2.68
2023-05-19T02:09:32.372Z,2.68
2023-05-19T02:10:32.484Z,2.73
2023-05-19T02:11:32.379Z,2.77
2023-05-19T02:12:32.409Z,2.69
2023-05-19T02:13:32.490Z,2.76
2023-05-19T02:14:32.560Z,2.60
2023-05-19T02:15:32.605Z,2.67
2023-05-19T02:16:32.673Z,2.73
2023-05-19T02:17:32.750Z,2.80
2023-05-19T02:18:32.797Z,2.76
2023-05-19T02:19:32.817Z,2.73
2023-05-19T02:20:33.068Z,2.83
2023-05-19T02:21:32.929Z,2.77
2023-05-19T02:22:32.949Z,2.78
2023-05-19T02:23:33.019Z,2.79
2023-05-19T02:24:33.061Z,3.07
2023-05-19T02:25:33.127Z,3.29
2023-05-19T02:26:33.174Z,3.16
2023-05-19T02:27:33.236Z,3.11
2023-05-19T02:28:33.362Z,3.10
2023-05-19T02:29:33.366Z,2.89
2023-05-19T02:30:33.574Z,2.97
2023-05-19T02:31:33.493Z,2.91
2023-05-19T02:32:33.604Z,2.96
2023-05-19T02:33:33.597Z,2.92
2023-05-19T02:34:33.660Z,2.91
2023-05-19T02:35:33.742Z,2.89
2023-05-19T02:36:33.793Z,2.88
2023-05-19T02:37:33.851Z,2.98
2023-05-19T02:38:33.926Z,3.10
2023-05-19T02:39:34.005Z,3.05
2023-05-19T02:40:34.196Z,2.98
2023-05-19T02:41:34.233Z,3.10
2023-05-19T02:42:34.455Z,3.10
2023-05-19T02:43:34.610Z,3.11
2023-05-19T02:44:34.739Z,3.30
2023-05-19T02:45:34.934Z,3.29
2023-05-19T02:46:35.228Z,3.19
2023-05-19T02:47:36.917Z,3.28
2023-05-19T02:48:35.229Z,3.15
2023-05-19T02:49:35.301Z,3.17
2023-05-19T02:50:35.360Z,3.19
2023-05-19T02:51:35.405Z,3.56
2023-05-19T02:52:35.460Z,3.33
2023-05-19T02:53:35.532Z,3.33
2023-05-19T02:54:35.617Z,3.19
2023-05-19T02:55:35.664Z,3.21
2023-05-19T02:56:35.720Z,3.18
2023-05-19T02:57:35.808Z,3.52
2023-05-19T02:58:35.815Z,3.75
2023-05-19T02:59:35.854Z,3.85
2023-05-19T03:00:35.923Z,3.68
2023-05-19T03:01:36.013Z,3.55
2023-05-19T03:02:36.093Z,3.42
2023-05-19T03:03:36.145Z,3.44
2023-05-19T03:04:36.093Z,3.49
2023-05-19T03:05:36.140Z,3.63
2023-05-19T03:06:36.210Z,3.39
2023-05-19T03:07:36.240Z,3.45
2023-05-19T03:08:36.296Z,3.63
2023-05-19T03:09:36.346Z,3.81
2023-05-19T03:10:36.408Z,3.93
2023-05-19T03:11:36.469Z,3.76
2023-05-19T03:12:36.499Z,3.86
2023-05-19T03:13:36.574Z,4.18
2023-05-19T03:14:36.621Z,4.37
2023-05-19T03:15:36.698Z,4.20
2023-05-19T03:16:36.851Z,4.18
2023-05-19T03:17:36.854Z,4.30
2023-05-19T03:18:36.878Z,4.24
2023-05-19T03:19:36.824Z,3.80
2023-05-19T03:20:36.896Z,3.69
2023-05-19T03:21:36.913Z,3.89
2023-05-19T03:22:36.943Z,3.98
2023-05-19T03:23:36.983Z,3.73
2023-05-19T03:24:37.042Z,3.71
2023-05-19T03:25:37.098Z,3.57
2023-05-19T03:26:37.107Z,3.67
2023-05-19T03:27:37.135Z,3.71
2023-05-19T03:28:37.215Z,3.67
2023-05-19T03:29:37.284Z,3.91
2023-05-19T03:30:37.381Z,3.98
2023-05-19T03:31:37.398Z,3.86
2023-05-19T03:32:37.520Z,3.87
2023-05-19T03:33:37.626Z,3.72
2023-05-19T03:34:37.566Z,3.59
2023-05-19T03:35:37.624Z,3.64
2023-05-19T03:36:37.687Z,3.57
2023-05-19T03:37:37.751Z,3.58
2023-05-19T03:38:37.786Z,3.58
2023-05-19T03:39:37.868Z,3.74
2023-05-19T03:40:37.913Z,3.93
2023-05-19T03:41:38.000Z,4.08
2023-05-19T03:42:38.048Z,4.16
2023-05-19T03:43:38.086Z,4.18
2023-05-19T03:44:38.146Z,4.10
2023-05-19T03:45:38.259Z,4.32
2023-05-19T03:46:38.284Z,4.30
2023-05-19T03:47:38.378Z,4.46
2023-05-19T03:48:38.392Z,4.43
2023-05-19T03:49:38.455Z,4.43
2023-05-19T03:50:38.473Z,4.42
2023-05-19T03:51:38.562Z,4.10
2023-05-19T03:52:38.684Z,3.97
2023-05-19T03:53:38.689Z,3.85
2023-05-19T03:54:38.703Z,3.76
2023-05-19T03:55:38.762Z,3.79
2023-05-19T03:56:38.825Z,3.75
2023-05-19T03:57:38.892Z,3.94
2023-05-19T03:58:38.960Z,4.22
2023-05-19T03:59:39.010Z,4.31
2023-05-19T04:00:39.091Z,4.07
2023-05-19T04:01:39.166Z,4.09
2023-05-19T04:02:39.284Z,4.06
2023-05-19T04:03:39.311Z,4.26
2023-05-19T04:04:39.388Z,4.15
2023-05-19T04:05:39.391Z,4.21
2023-05-19T04:06:39.440Z,4.16
2023-05-19T04:07:39.469Z,3.97
2023-05-19T04:08:39.540Z,4.00
2023-05-19T04:09:39.597Z,3.92
2023-05-19T04:10:39.645Z,4.21
2023-05-19T04:11:39.734Z,4.45
2023-05-19T04:12:39.785Z,4.65
2023-05-19T04:13:39.831Z,4.89
2023-05-19T04:14:39.895Z,4.97
2023-05-19T04:15:40.005Z,4.91
2023-05-19T04:16:40.001Z,4.82
2023-05-19T04:17:40.085Z,4.50
2023-05-19T04:18:40.114Z,4.65
2023-05-19T04:19:40.159Z,4.91
2023-05-19T04:20:40.197Z,4.94
2023-05-19T04:21:40.498Z,5.20
2023-05-19T04:22:40.323Z,5.09
2023-05-19T04:23:40.385Z,5.07
2023-05-19T04:24:40.477Z,5.24
2023-05-19T04:25:40.503Z,5.13
2023-05-19T04:26:40.573Z,5.06
2023-05-19T04:27:40.611Z,5.11
2023-05-19T04:28:40.692Z,5.00
2023-05-19T04:29:40.763Z,5.03
2023-05-19T04:30:40.832Z,5.03
2023-05-19T04:31:40.972Z,4.92
2023-05-19T04:32:40.901Z,4.95
2023-05-19T04:33:40.905Z,5.08
2023-05-19T04:34:40.951Z,5.13
2023-05-19T04:35:41.016Z,5.21
2023-05-19T04:36:41.076Z,5.19
2023-05-19T04:37:41.101Z,4.97
2023-05-19T04:38:41.188Z,4.85
2023-05-19T04:39:41.234Z,4.91
2023-05-19T04:40:41.294Z,4.84
2023-05-19T04:41:41.350Z,4.92
2023-05-19T04:42:41.412Z,4.80
2023-05-19T04:43:41.471Z,4.79
2023-05-19T04:44:41.521Z,4.73
2023-05-19T04:45:41.565Z,4.56
2023-05-19T04:46:41.678Z,4.61
2023-05-19T04:47:41.740Z,4.49
2023-05-19T04:48:41.770Z,4.62
2023-05-19T04:49:41.748Z,4.43
2023-05-19T04:50:41.802Z,4.50
2023-05-19T04:51:41.843Z,4.54
2023-05-19T04:52:41.919Z,4.43
2023-05-19T04:53:41.944Z,4.18
2023-05-19T04:54:42.056Z,4.31
2023-05-19T04:55:42.065Z,4.33
2023-05-19T04:56:42.090Z,4.18
2023-05-19T04:57:42.143Z,4.03
2023-05-19T04:58:42.164Z,3.91
2023-05-19T04:59:42.254Z,3.96
2023-05-19T05:00:42.265Z,4.01
2023-05-19T05:01:42.391Z,4.15
2023-05-19T05:02:42.424Z,4.06
2023-05-19T05:03:42.489Z,3.89
2023-05-19T05:04:42.627Z,3.96
2023-05-19T05:05:42.503Z,4.08
2023-05-19T05:06:42.543Z,3.98
2023-05-19T05:07:42.590Z,3.84
2023-05-19T05:08:42.665Z,3.67
2023-05-19T05:09:42.690Z,3.62
2023-05-19T05:10:42.734Z,3.55
2023-05-19T05:11:42.788Z,3.53
2023-05-19T05:12:42.839Z,3.45
2023-05-19T05:13:42.870Z,3.37
2023-05-19T05:14:42.940Z,3.31
2023-05-19T05:15:43.016Z,3.35
2023-05-19T05:16:43.131Z,3.28
2023-05-19T05:17:43.096Z,3.24
2023-05-19T05:18:44.916Z,3.16
2023-05-19T05:19:43.162Z,3.13
2023-05-19T05:20:43.237Z,3.21
2023-05-19T05:21:43.300Z,3.11
2023-05-19T05:22:43.317Z,3.00
2023-05-19T05:23:43.403Z,2.98
2023-05-19T05:24:43.443Z,3.04
2023-05-19T05:25:43.478Z,2.99
2023-05-19T05:26:43.525Z,3.06
2023-05-19T05:27:43.572Z,3.03
2023-05-19T05:28:43.622Z,2.95
2023-05-19T05:29:43.660Z,3.00
2023-05-19T05:30:43.719Z,2.88
2023-05-19T05:31:43.803Z,2.87
2023-05-19T05:32:43.871Z,2.86
2023-05-19T05:33:43.892Z,2.87
2023-05-19T05:34:44.057Z,2.80
2023-05-19T05:35:43.993Z,2.73
2023-05-19T05:36:44.060Z,2.72
2023-05-19T05:37:44.063Z,2.76
2023-05-19T05:38:44.096Z,2.80
2023-05-19T05:39:44.164Z,2.69
2023-05-19T05:40:44.204Z,2.73
2023-05-19T05:41:44.256Z,2.78
2023-05-19T05:42:44.316Z,2.80
2023-05-19T05:43:44.346Z,2.81
2023-05-19T05:44:44.413Z,2.73
2023-05-19T05:45:44.484Z,2.73
2023-05-19T05:46:44.511Z,2.78
2023-05-19T05:47:44.578Z,2.81
2023-05-19T05:48:44.589Z,2.77
2023-05-19T05:49:44.654Z,2.72
2023-05-19T05:50:44.693Z,2.64
2023-05-19T05:51:57.933Z,2.65
2023-05-19T05:52:45.740Z,2.65
2023-05-19T05:53:44.749Z,2.66
2023-05-19T05:54:44.715Z,2.66
2023-05-19T05:55:44.704Z,2.69
2023-05-19T05:56:44.706Z,2.70
2023-05-19T05:57:44.725Z,2.74
2023-05-19T05:58:44.690Z,2.71
2023-05-19T05:59:44.681Z,2.75
2023-05-19T06:00:44.703Z,2.79
2023-05-19T06:01:44.688Z,2.76
2023-05-19T06:02:44.775Z,2.70
2023-05-19T06:03:44.722Z,2.77
2023-05-19T06:04:44.693Z,2.78
2023-05-19T06:05:44.802Z,2.67
2023-05-19T06:06:44.799Z,2.71
2023-05-19T06:07:44.821Z,2.63
2023-05-19T06:08:44.876Z,2.59
2023-05-19T06:09:44.940Z,2.61
2023-05-19T06:10:47.206Z,2.63
2023-05-19T06:11:45.138Z,2.66
2023-05-19T06:12:45.179Z,2.69
2023-05-19T06:13:45.352Z,2.75
2023-05-19T06:14:45.226Z,2.75
2023-05-19T06:15:45.296Z,2.70
2023-05-19T06:16:45.315Z,2.73
2023-05-19T06:17:45.379Z,2.77
2023-05-19T06:18:45.455Z,2.78
2023-05-19T06:19:45.435Z,2.76
2023-05-19T06:20:45.445Z,2.76
2023-05-19T06:21:45.491Z,2.81
2023-05-19T06:22:45.538Z,2.82
2023-05-19T06:23:45.563Z,2.92
2023-05-19T06:24:45.663Z,3.06
2023-05-19T06:25:45.650Z,3.04
2023-05-19T06:26:45.650Z,3.21
2023-05-19T06:27:45.687Z,3.36
2023-05-19T06:28:45.679Z,3.43
2023-05-19T06:29:45.705Z,3.46
2023-05-19T06:30:45.721Z,3.39
2023-05-19T06:31:45.793Z,3.54
2023-05-19T06:32:45.853Z,3.81
2023-05-19T06:33:45.834Z,4.06
2023-05-19T06:34:46.018Z,4.30
2023-05-19T06:35:45.896Z,5.27
2023-05-19T06:36:45.943Z,5.51
2023-05-19T06:37:45.998Z,5.56
2023-05-19T06:38:46.052Z,5.83
2023-05-19T06:39:46.048Z,6.13
2023-05-19T06:40:46.067Z,6.66
2023-05-19T06:41:46.298Z,7.20
2023-05-19T06:42:46.184Z,7.24
2023-05-19T06:43:46.141Z,7.46
2023-05-19T06:44:46.319Z,7.20
2023-05-19T06:45:46.163Z,7.21
2023-05-19T06:46:46.283Z,7.04
2023-05-19T06:47:46.337Z,6.82
2023-05-19T06:48:46.289Z,6.86
2023-05-19T06:49:46.363Z,6.50
2023-05-19T06:50:46.359Z,6.17
2023-05-19T06:51:46.322Z,5.98
2023-05-19T06:52:46.354Z,5.90
2023-05-19T06:53:46.352Z,5.51
2023-05-19T06:54:46.352Z,5.30
2023-05-19T06:55:58.056Z,5.23
2023-05-19T06:56:47.461Z,5.24
2023-05-19T06:57:46.361Z,5.25
2023-05-19T06:58:46.369Z,5.23
2023-05-19T06:59:46.345Z,5.16
2023-05-19T07:00:46.334Z,4.94
2023-05-19T07:01:46.379Z,4.94
2023-05-19T07:02:46.365Z,4.87
2023-05-19T07:03:46.373Z,4.86
2023-05-19T07:04:46.441Z,4.74
2023-05-19T07:05:46.336Z,4.74
2023-05-19T07:06:46.362Z,4.98
2023-05-19T07:07:46.322Z,4.91
2023-05-19T07:08:46.348Z,4.66
2023-05-19T07:09:46.272Z,4.62
2023-05-19T07:10:46.272Z,4.47
2023-05-19T07:11:46.291Z,4.53
2023-05-19T07:12:46.287Z,4.79
2023-05-19T07:13:46.277Z,4.63
2023-05-19T07:14:46.259Z,4.59
2023-05-19T07:15:46.224Z,4.54
2023-05-19T07:16:46.462Z,4.70
2023-05-19T07:17:46.235Z,4.61
2023-05-19T07:18:46.467Z,4.85
2023-05-19T07:19:46.328Z,5.02
2023-05-19T07:20:46.189Z,4.75
2023-05-19T07:21:46.421Z,4.82
2023-05-19T07:22:46.182Z,4.72
2023-05-19T07:23:46.184Z,4.55
2023-05-19T07:24:46.223Z,4.31
2023-05-19T07:25:46.181Z,4.61
2023-05-19T07:26:46.190Z,4.84
2023-05-19T07:27:46.199Z,4.93
2023-05-19T07:28:46.214Z,4.80
2023-05-19T07:29:46.217Z,4.72
2023-05-19T07:30:46.230Z,4.95
2023-05-19T07:31:46.288Z,4.70
2023-05-19T07:32:46.400Z,4.77
2023-05-19T07:33:46.293Z,4.58
2023-05-19T07:34:46.285Z,4.34
2023-05-19T07:35:46.289Z,4.28
2023-05-19T07:36:46.308Z,4.20
2023-05-19T07:37:46.329Z,4.10
2023-05-19T07:38:46.313Z,4.30
2023-05-19T07:39:46.306Z,4.42
2023-05-19T07:40:46.301Z,4.33
2023-05-19T07:41:46.303Z,4.10
2023-05-19T07:42:46.280Z,3.90
2023-05-19T07:43:46.368Z,3.94
2023-05-19T07:44:46.337Z,4.02
2023-05-19T07:45:46.306Z,4.17
2023-05-19T07:46:46.319Z,4.27
2023-05-19T07:47:46.396Z,4.20
2023-05-19T07:48:46.350Z,4.12
2023-05-19T07:49:46.388Z,4.14
2023-05-19T07:50:46.355Z,4.22
2023-05-19T07:51:46.414Z,4.06
2023-05-19T07:52:46.410Z,4.02
2023-05-19T07:53:46.459Z,3.84
2023-05-19T07:54:46.538Z,4.03
2023-05-19T07:55:46.574Z,4.03
2023-05-19T07:56:46.632Z,3.99
2023-05-19T07:57:46.681Z,4.05
2023-05-19T07:58:46.926Z,4.08
2023-05-19T07:59:46.816Z,3.93
2023-05-19T08:00:46.861Z,4.07
2023-05-19T08:01:46.920Z,4.17
2023-05-19T08:02:47.068Z,4.22
2023-05-19T08:03:47.098Z,4.24
2023-05-19T08:04:47.136Z,4.10
2023-05-19T08:05:47.139Z,4.18
2023-05-19T08:06:47.187Z,4.20
2023-05-19T08:07:47.242Z,4.19
2023-05-19T08:08:47.352Z,4.35
2023-05-19T08:09:47.320Z,4.30
2023-05-19T08:10:47.379Z,4.09
2023-05-19T08:11:47.426Z,4.32
2023-05-19T08:12:47.450Z,4.37
2023-05-19T08:13:47.521Z,4.26
2023-05-19T08:14:47.535Z,4.18
2023-05-19T08:15:47.612Z,4.25
2023-05-19T08:16:47.614Z,4.20
2023-05-19T08:17:47.650Z,4.20
2023-05-19T08:18:47.681Z,4.33
2023-05-19T08:19:47.664Z,4.19
2023-05-19T08:20:47.766Z,4.38
2023-05-19T08:21:47.718Z,4.29
2023-05-19T08:22:47.772Z,4.19
2023-05-19T08:23:47.773Z,4.23
2023-05-19T08:24:47.819Z,4.23
2023-05-19T08:25:47.874Z,4.31
2023-05-19T08:26:47.924Z,4.30
2023-05-19T08:27:47.953Z,4.31
2023-05-19T08:28:48.009Z,4.48
2023-05-19T08:29:48.039Z,4.46
2023-05-19T08:30:48.097Z,4.51
2023-05-19T08:31:48.290Z,4.50
2023-05-19T08:32:48.204Z,4.53
2023-05-19T08:33:48.255Z,4.50
2023-05-19T08:34:48.300Z,4.35
2023-05-19T08:35:48.365Z,4.53
2023-05-19T08:36:48.409Z,4.57
2023-05-19T08:37:48.481Z,4.72
2023-05-19T08:38:48.545Z,4.57
2023-05-19T08:39:48.598Z,4.43
2023-05-19T08:40:48.752Z,4.48
2023-05-19T08:41:48.700Z,4.38
2023-05-19T08:42:48.754Z,4.37
2023-05-19T08:43:48.777Z,4.28
2023-05-19T08:44:48.848Z,4.48
2023-05-19T08:45:48.918Z,4.49
2023-05-19T08:46:49.002Z,4.41
2023-05-19T08:47:49.071Z,4.40
2023-05-19T08:48:49.085Z,4.27
2023-05-19T08:49:49.136Z,4.22
2023-05-19T08:50:49.189Z,4.03
2023-05-19T08:51:49.294Z,4.11
2023-05-19T08:52:51.815Z,4.09
2023-05-19T08:53:49.286Z,4.13
2023-05-19T08:54:49.280Z,4.16
2023-05-19T08:55:49.268Z,4.07
2023-05-19T08:56:49.269Z,4.06
2023-05-19T08:57:49.254Z,4.00
2023-05-19T08:58:49.284Z,4.12
2023-05-19T08:59:49.262Z,4.00
2023-05-19T09:00:49.237Z,4.16
2023-05-19T09:01:49.225Z,4.12
2023-05-19T09:02:59.813Z,4.20
2023-05-19T09:03:50.701Z,4.20
2023-05-19T09:04:49.227Z,4.13
2023-05-19T09:05:49.265Z,4.04
2023-05-19T09:06:49.200Z,3.99
2023-05-19T09:07:49.190Z,3.91
2023-05-19T09:08:49.208Z,3.80
2023-05-19T09:09:49.175Z,3.89
2023-05-19T09:10:49.169Z,3.75
2023-05-19T09:11:49.161Z,3.74
2023-05-19T09:12:49.235Z,3.74
2023-05-19T09:13:49.181Z,3.78
2023-05-19T09:14:49.198Z,3.76
2023-05-19T09:15:49.234Z,3.83
2023-05-19T09:16:49.270Z,3.78
2023-05-19T09:17:49.266Z,3.77
2023-05-19T09:18:49.297Z,3.80
2023-05-19T09:19:49.323Z,3.89
2023-05-19T09:20:49.337Z,3.83
2023-05-19T09:21:50.209Z,3.89
2023-05-19T09:22:49.502Z,3.95
2023-05-19T09:23:49.406Z,3.89
2023-05-19T09:24:49.425Z,3.82
2023-05-19T09:25:49.457Z,3.91
2023-05-19T09:26:49.479Z,3.94
2023-05-19T09:27:49.500Z,4.00
2023-05-19T09:28:49.585Z,3.87
2023-05-19T09:29:49.729Z,3.84
2023-05-19T09:30:49.886Z,3.84
2023-05-19T09:31:50.097Z,3.81
2023-05-19T09:32:50.296Z,3.78
2023-05-19T09:33:50.413Z,3.71
2023-05-19T09:34:50.653Z,3.79
2023-05-19T09:35:50.736Z,3.87
2023-05-19T09:36:50.903Z,3.79
2023-05-19T09:37:51.093Z,3.79
2023-05-19T09:38:51.197Z,3.83
2023-05-19T09:39:51.333Z,3.80
2023-05-19T09:40:51.474Z,3.78
2023-05-19T09:41:51.717Z,3.71
2023-05-19T09:42:51.757Z,3.82
2023-05-19T09:43:52.031Z,3.76
2023-05-19T09:44:52.056Z,3.80
2023-05-19T09:45:52.188Z,3.77
2023-05-19T09:46:52.361Z,3.63
2023-05-19T09:47:52.717Z,3.62
2023-05-19T09:48:52.680Z,3.51
2023-05-19T09:49:52.934Z,3.57
2023-05-19T09:50:52.977Z,3.62
2023-05-19T09:51:53.119Z,3.61
2023-05-19T09:52:53.282Z,3.79
2023-05-19T09:53:53.383Z,3.80
2023-05-19T09:54:53.550Z,3.85
2023-05-19T09:55:53.686Z,3.89
2023-05-19T09:56:53.847Z,3.82
2023-05-19T09:57:53.953Z,3.78
2023-05-19T09:58:54.073Z,3.84
2023-05-19T09:59:54.229Z,3.81
2023-05-19T10:00:54.378Z,4.00
2023-05-19T10:01:54.581Z,3.84
2023-05-19T10:02:54.732Z,3.82
2023-05-19T10:03:54.800Z,3.73
2023-05-19T10:04:54.959Z,3.79
2023-05-19T10:05:55.059Z,3.84
2023-05-19T10:06:55.196Z,3.84
2023-05-19T10:07:55.346Z,3.73
2023-05-19T10:08:55.478Z,3.76
2023-05-19T10:09:56.682Z,3.81
2023-05-19T10:10:55.838Z,3.76
2023-05-19T10:11:55.936Z,3.66
2023-05-19T10:12:56.063Z,3.61
2023-05-19T10:13:56.213Z,3.57
2023-05-19T10:14:56.326Z,3.70
2023-05-19T10:15:59.244Z,3.65
2023-05-19T10:16:56.621Z,3.72
2023-05-19T10:17:56.459Z,3.82
2023-05-19T10:18:56.469Z,3.87
2023-05-19T10:19:56.385Z,3.85
2023-05-19T10:20:56.412Z,3.82
2023-05-19T10:21:56.405Z,3.70
2023-05-19T10:22:56.375Z,3.78
2023-05-19T10:23:56.376Z,3.88
2023-05-19T10:24:56.364Z,3.62
2023-05-19T10:25:56.366Z,3.71
2023-05-19T10:26:56.379Z,3.76
2023-05-19T10:27:56.389Z,3.75
2023-05-19T10:28:56.320Z,3.75
2023-05-19T10:29:56.320Z,3.84
2023-05-19T10:30:56.322Z,3.82
2023-05-19T10:31:56.364Z,3.75
2023-05-19T10:32:56.385Z,3.84
2023-05-19T10:33:56.297Z,3.84
2023-05-19T10:34:56.285Z,3.83
2023-05-19T10:35:56.283Z,3.91
2023-05-19T10:36:56.294Z,3.78
2023-05-19T10:37:56.305Z,3.70
2023-05-19T10:38:56.261Z,3.71
2023-05-19T10:39:56.271Z,3.57
2023-05-19T10:40:56.258Z,3.61
2023-05-19T10:41:56.248Z,3.57
2023-05-19T10:42:56.245Z,3.66
2023-05-19T10:43:56.215Z,3.50
2023-05-19T10:44:56.229Z,3.43
2023-05-19T10:45:56.334Z,3.31
2023-05-19T10:46:57.130Z,3.33
2023-05-19T10:47:56.263Z,3.24
2023-05-19T10:48:56.299Z,3.29
2023-05-19T10:49:56.253Z,3.35
2023-05-19T10:50:56.173Z,3.38
2023-05-19T10:51:56.190Z,3.26
2023-05-19T10:52:56.195Z,3.21
2023-05-19T10:53:56.175Z,3.21
2023-05-19T10:54:56.156Z,3.20
2023-05-19T10:55:56.267Z,3.22
2023-05-19T10:56:56.134Z,3.15
2023-05-19T10:57:56.149Z,3.16
2023-05-19T10:58:56.172Z,3.09
2023-05-19T10:59:56.132Z,3.11
2023-05-19T11:00:56.149Z,3.15
2023-05-19T11:01:56.153Z,3.06
2023-05-19T11:02:56.321Z,3.04
2023-05-19T11:03:56.170Z,3.00
2023-05-19T11:04:56.140Z,3.10
2023-05-19T11:05:56.098Z,3.09
2023-05-19T11:06:56.105Z,3.08
2023-05-19T11:07:56.261Z,3.12
2023-05-19T11:08:56.119Z,3.03
2023-05-19T11:09:56.120Z,2.95
2023-05-19T11:10:56.131Z,2.95
2023-05-19T11:11:56.120Z,3.06
2023-05-19T11:13:56.277Z,2.86
2023-05-19T11:14:56.190Z,2.88
2023-05-19T11:15:56.181Z,2.86
2023-05-19T11:16:56.232Z,2.82
2023-05-19T11:17:56.272Z,2.85
2023-05-19T11:18:56.234Z,2.86
2023-05-19T11:19:56.198Z,2.91
2023-05-19T11:20:56.282Z,3.00
2023-05-19T11:21:56.458Z,2.99
2023-05-19T11:22:56.596Z,3.05
2023-05-19T11:23:56.742Z,3.07
2023-05-19T11:24:56.829Z,2.97
2023-05-19T11:25:56.984Z,2.94
2023-05-19T11:26:57.114Z,2.95
2023-05-19T11:27:57.207Z,2.88
2023-05-19T11:28:57.335Z,2.85
2023-05-19T11:29:57.421Z,2.75
2023-05-19T11:30:57.726Z,2.76
2023-05-19T11:31:57.795Z,2.84
2023-05-19T11:32:57.943Z,2.82
2023-05-19T11:33:57.969Z,2.83
2023-05-19T11:34:58.119Z,2.83
2023-05-19T11:35:58.267Z,2.70
2023-05-19T11:36:58.201Z,2.75
2023-05-19T11:37:58.197Z,2.71
2023-05-19T11:38:58.225Z,2.80
2023-05-19T11:39:58.250Z,2.65
2023-05-19T11:40:58.354Z,2.65
2023-05-19T11:41:58.329Z,2.65
2023-05-19T11:42:58.486Z,2.69
2023-05-19T11:43:58.343Z,2.69
2023-05-19T11:44:58.426Z,2.71
2023-05-19T11:45:58.416Z,2.68
2023-05-19T11:46:58.410Z,2.80
2023-05-19T11:48:02.776Z,2.79
2023-05-19T11:48:58.437Z,2.79
2023-05-19T11:49:58.432Z,2.79
2023-05-19T11:50:58.409Z,2.78
2023-05-19T11:51:58.417Z,2.68
2023-05-19T11:52:58.619Z,2.81
2023-05-19T11:53:58.395Z,2.73
2023-05-19T11:54:58.379Z,2.79
2023-05-19T11:55:58.368Z,2.87
2023-05-19T11:56:58.407Z,2.82
2023-05-19T11:58:04.066Z,2.85
2023-05-19T11:58:59.370Z,2.83
2023-05-19T11:59:58.354Z,2.71
2023-05-19T12:00:58.340Z,2.85
2023-05-19T12:01:58.360Z,2.86
2023-05-19T12:02:58.452Z,2.75
2023-05-19T12:03:58.499Z,2.72
2023-05-19T12:04:58.372Z,2.75
2023-05-19T12:05:58.332Z,2.55
2023-05-19T12:06:58.327Z,2.53
2023-05-19T12:07:58.308Z,2.55
2023-05-19T12:08:58.301Z,2.45
2023-05-19T12:09:58.308Z,2.57
2023-05-19T12:10:58.311Z,2.63
2023-05-19T12:11:58.300Z,2.61
2023-05-19T12:12:58.271Z,2.59
2023-05-19T12:13:58.279Z,2.63
2023-05-19T12:14:58.308Z,2.50
2023-05-19T12:15:58.327Z,2.48
2023-05-19T12:16:58.344Z,2.41
2023-05-19T12:17:58.410Z,2.42
2023-05-19T12:18:58.567Z,2.40
2023-05-19T12:19:58.412Z,2.42
2023-05-19T12:20:58.441Z,2.43
2023-05-19T12:21:58.513Z,2.41
2023-05-19T12:22:58.496Z,2.38
2023-05-19T12:23:58.511Z,2.41
2023-05-19T12:24:58.510Z,2.48
2023-05-19T12:25:58.532Z,2.55
2023-05-19T12:26:58.660Z,2.41
2023-05-19T12:27:58.624Z,2.42
2023-05-19T12:28:58.646Z,2.44
2023-05-19T12:29:58.634Z,2.39
2023-05-19T12:30:58.662Z,2.40
2023-05-19T12:31:58.721Z,2.35
2023-05-19T12:32:58.767Z,2.49
2023-05-19T12:33:58.711Z,2.41
2023-05-19T12:34:58.737Z,2.48
2023-05-19T12:35:58.713Z,2.36
2023-05-19T12:36:58.804Z,2.44
2023-05-19T12:37:58.706Z,2.29
2023-05-19T12:38:58.805Z,2.41
2023-05-19T12:39:58.896Z,2.35
2023-05-19T12:40:59.117Z,2.46
2023-05-19T12:41:59.232Z,2.47
2023-05-19T12:42:59.482Z,2.51
2023-05-19T12:43:59.452Z,2.45
2023-05-19T12:45:00.748Z,2.47
2023-05-19T12:45:59.847Z,2.45
2023-05-19T12:46:59.821Z,2.36
2023-05-19T12:47:59.849Z,2.40
2023-05-19T12:48:59.788Z,2.35
2023-05-19T12:49:59.832Z,2.42
2023-05-19T12:50:59.829Z,2.36
2023-05-19T12:52:00.539Z,2.35
2023-05-19T12:52:59.939Z,2.42
2023-05-19T12:53:59.834Z,2.39
2023-05-19T12:54:59.939Z,2.45
2023-05-19T12:55:59.798Z,2.42
2023-05-19T12:56:59.793Z,2.36
2023-05-19T12:57:59.781Z,2.27
2023-05-19T12:58:59.777Z,2.36
2023-05-19T12:59:59.946Z,2.39
2023-05-19T13:00:59.940Z,2.53
2023-05-19T13:01:59.832Z,2.52
2023-05-19T13:02:59.939Z,2.46
2023-05-19T13:03:59.809Z,2.52
2023-05-19T13:04:59.733Z,2.48
2023-05-19T13:05:59.741Z,2.56
2023-05-19T13:06:59.795Z,2.45
2023-05-19T13:07:59.709Z,2.38
2023-05-19T13:08:59.705Z,2.39
2023-05-19T13:09:59.690Z,2.33
2023-05-19T13:10:59.697Z,2.44
2023-05-19T13:11:59.670Z,2.34
2023-05-19T13:12:59.674Z,2.36
2023-05-19T13:13:59.656Z,2.44
2023-05-19T13:14:59.660Z,2.47
2023-05-19T13:15:59.634Z,2.38
2023-05-19T13:16:59.747Z,2.32
2023-05-19T13:17:59.660Z,2.37
2023-05-19T13:18:59.752Z,2.37
2023-05-19T13:19:59.685Z,2.35